Trans Sea — 9HA2564 — position and weather

sailwx.info

Track history (hours):
 
Tides and Currents Weather Stations Pressure Air Temp Water Temp Dewpoint Dewpoint Depression Visibility Wind Speed Wind Dir Waves Ship Positions

Trans Sea

Last reported at 2017-Feb-21 02:21 UTC. Time now 2017-Feb-21 08:04 UTC.
Position N 43°25' E 004°50'.

Length 107 m; draft 5.5 m.

Type: Ship. MMSI: 248887000.

Date/timePositionNaut miles runAvg speedWind from/ knotsBaromVisibWave heightAir tempDewpointWater temp
2017-Feb-21 02:21N 43°25' E 004°50'5 5.7
2017-Feb-21 01:28N 43°24' E 004°57'1 0.8
2017-Feb-21 00:31N 43°24' E 004°58'0 0.1
2017-Feb-20 23:31N 43°24' E 004°58'0 0.0
2017-Feb-20 22:31N 43°24' E 004°58'0 0.0
2017-Feb-20 21:31N 43°24' E 004°58'0 0.0
2017-Feb-20 20:28N 43°24' E 004°58'0 0.0
2017-Feb-20 19:31N 43°24' E 004°58'0 0.2
2017-Feb-20 18:33N 43°23' E 004°58'2311.1
2017-Feb-20 16:25N 43°00' E 004°51'2612.9
2017-Feb-20 14:26N 42°45' E 004°23'11511.4
2017-Feb-20 04:19N 41°17' E 002°42'1012.7
2017-Feb-20 03:32N 41°12' E 002°32'1312.6
2017-Feb-20 02:30N 41°04' E 002°17'1313.4
2017-Feb-20 01:33N 41°01' E 002°01'3611.9
2017-Feb-19 22:32N 41°04' E 001°14'35 1.6
2017-Feb-19 00:14N 41°06' E 002°01'1013.1
2017-Feb-18 23:29N 41°09' E 002°13'2714.0
2017-Feb-18 21:32N 41°26' E 002°42'12513.9
2017-Feb-18 12:33N 42°54' E 004°40'2612.9
2017-Feb-18 10:33N 43°16' E 004°59'11 0.6
2017-Feb-17 16:13N 43°25' E 004°50'5 0.2
2017-Feb-16 16:07N 43°24' E 004°57'1 2.0
2017-Feb-16 15:31N 43°24' E 004°58'0 0.0
2017-Feb-16 14:28N 43°24' E 004°58'0 0.0
2017-Feb-16 13:31N 43°24' E 004°58'0 0.1
2017-Feb-16 12:31N 43°24' E 004°58'0 0.0
2017-Feb-16 11:28N 43°24' E 004°58'0 0.0
2017-Feb-16 10:31N 43°24' E 004°58'0 0.1
2017-Feb-16 09:31N 43°24' E 004°58'0 0.0
2017-Feb-16 08:28N 43°24' E 004°58'0 0.0
2017-Feb-16 07:31N 43°24' E 004°58'0 0.0
2017-Feb-16 06:31N 43°24' E 004°58'0 0.0
2017-Feb-16 05:28N 43°24' E 004°58'0 0.1
2017-Feb-16 04:31N 43°24' E 004°58'0 0.1
2017-Feb-16 03:28N 43°24' E 004°58'0 0.0
2017-Feb-16 02:31N 43°24' E 004°58'0 0.0
2017-Feb-16 01:31N 43°24' E 004°58'0 0.0
2017-Feb-16 00:31N 43°24' E 004°58'0 0.0
2017-Feb-15 23:28N 43°24' E 004°58'0 0.0
2017-Feb-15 22:31N 43°24' E 004°58'0 0.0
2017-Feb-15 21:31N 43°24' E 004°58'0 0.0
2017-Feb-15 20:31N 43°24' E 004°58'0 0.0
2017-Feb-15 19:31N 43°24' E 004°58'0 0.0
2017-Feb-15 18:28N 43°24' E 004°58'18511.6
2017-Feb-15 02:33N 43°06' E 009°11'37113.1
2017-Feb-13 22:18N 38°46' E 015°03'1113.8
2017-Feb-13 21:32N 38°39' E 015°13'1313.6
2017-Feb-13 20:33N 38°30' E 015°25'1313.3
2017-Feb-13 19:33N 38°21' E 015°38'1010.4
2017-Feb-13 18:33N 38°11' E 015°37'1312.5
2017-Feb-13 17:33N 37°58' E 015°36'1413.2
2017-Feb-13 16:30N 37°49' E 015°49'  
Track history (hours):
 
Tides and Currents Weather Stations Pressure Air Temp Water Temp Dewpoint Dewpoint Depression Visibility Wind Speed Wind Dir Waves Ship Positions

Trans Sea

Last reported at 2017-Feb-21 02:21 UTC. Time now 2017-Feb-21 08:04 UTC.
Position N 43°25' E 004°50'.

Length 107 m; draft 5.5 m.

Type: Ship. MMSI: 248887000.

Date/timePositionNaut miles runAvg speedWind from/ knotsBaromVisibWave heightAir tempDewpointWater temp
2017-Feb-21 02:21N 43°25' E 004°50'5 5.7
2017-Feb-21 01:28N 43°24' E 004°57'1 0.8
2017-Feb-21 00:31N 43°24' E 004°58'0 0.1
2017-Feb-20 23:31N 43°24' E 004°58'0 0.0
2017-Feb-20 22:31N 43°24' E 004°58'0 0.0
2017-Feb-20 21:31N 43°24' E 004°58'0 0.0
2017-Feb-20 20:28N 43°24' E 004°58'0 0.0
2017-Feb-20 19:31N 43°24' E 004°58'0 0.2
2017-Feb-20 18:33N 43°23' E 004°58'2311.1
2017-Feb-20 16:25N 43°00' E 004°51'2612.9
2017-Feb-20 14:26N 42°45' E 004°23'11511.4
2017-Feb-20 04:19N 41°17' E 002°42'1012.7
2017-Feb-20 03:32N 41°12' E 002°32'1312.6
2017-Feb-20 02:30N 41°04' E 002°17'1313.4
2017-Feb-20 01:33N 41°01' E 002°01'3611.9
2017-Feb-19 22:32N 41°04' E 001°14'35 1.6
2017-Feb-19 00:14N 41°06' E 002°01'1013.1
2017-Feb-18 23:29N 41°09' E 002°13'2714.0
2017-Feb-18 21:32N 41°26' E 002°42'12513.9
2017-Feb-18 12:33N 42°54' E 004°40'2612.9
2017-Feb-18 10:33N 43°16' E 004°59'11 0.6
2017-Feb-17 16:13N 43°25' E 004°50'5 0.2
2017-Feb-16 16:07N 43°24' E 004°57'1 2.0
2017-Feb-16 15:31N 43°24' E 004°58'0 0.0
2017-Feb-16 14:28N 43°24' E 004°58'0 0.0
2017-Feb-16 13:31N 43°24' E 004°58'0 0.1
2017-Feb-16 12:31N 43°24' E 004°58'0 0.0
2017-Feb-16 11:28N 43°24' E 004°58'0 0.0
2017-Feb-16 10:31N 43°24' E 004°58'0 0.1
2017-Feb-16 09:31N 43°24' E 004°58'0 0.0
2017-Feb-16 08:28N 43°24' E 004°58'0 0.0
2017-Feb-16 07:31N 43°24' E 004°58'0 0.0
2017-Feb-16 06:31N 43°24' E 004°58'0 0.0
2017-Feb-16 05:28N 43°24' E 004°58'0 0.1
2017-Feb-16 04:31N 43°24' E 004°58'0 0.1
2017-Feb-16 03:28N 43°24' E 004°58'0 0.0
2017-Feb-16 02:31N 43°24' E 004°58'0 0.0
2017-Feb-16 01:31N 43°24' E 004°58'0 0.0
2017-Feb-16 00:31N 43°24' E 004°58'0 0.0
2017-Feb-15 23:28N 43°24' E 004°58'0 0.0
2017-Feb-15 22:31N 43°24' E 004°58'0 0.0
2017-Feb-15 21:31N 43°24' E 004°58'0 0.0
2017-Feb-15 20:31N 43°24' E 004°58'0 0.0
2017-Feb-15 19:31N 43°24' E 004°58'0 0.0
2017-Feb-15 18:28N 43°24' E 004°58'18511.6
2017-Feb-15 02:33N 43°06' E 009°11'37113.1
2017-Feb-13 22:18N 38°46' E 015°03'1113.8
2017-Feb-13 21:32N 38°39' E 015°13'1313.6
2017-Feb-13 20:33N 38°30' E 015°25'1313.3
2017-Feb-13 19:33N 38°21' E 015°38'1010.4
2017-Feb-13 18:33N 38°11' E 015°37'1312.5
2017-Feb-13 17:33N 37°58' E 015°36'1413.2
2017-Feb-13 16:30N 37°49' E 015°49'  

Dump ship's entire track history